sensor_id;sensor_type;location;lat;lon;timestamp;pressure;altitude;pressure_sealevel;temperature;humidity
11077;BME280;5591;42.626;23.380;2023-05-02T00:01:39;94528.53;;;12.66;100.00
11077;BME280;5591;42.626;23.380;2023-05-02T00:04:06;94529.53;;;12.65;100.00
11077;BME280;5591;42.626;23.380;2023-05-02T00:06:33;94527.25;;;12.56;100.00
11077;BME280;5591;42.626;23.380;2023-05-02T00:09:02;94532.38;;;12.64;100.00
11077;BME280;5591;42.626;23.380;2023-05-02T00:11:29;94535.38;;;12.61;100.00
11077;BME280;5591;42.626;23.380;2023-05-02T00:13:56;94539.41;;;12.57;100.00
11077;BME280;5591;42.626;23.380;2023-05-02T00:16:23;94537.81;;;12.62;100.00
11077;BME280;5591;42.626;23.380;2023-05-02T00:18:50;94531.13;;;12.60;100.00
11077;BME280;5591;42.626;23.380;2023-05-02T00:21:16;94526.78;;;12.46;100.00
11077;BME280;5591;42.626;23.380;2023-05-02T00:23:43;94537.34;;;12.52;100.00
11077;BME280;5591;42.626;23.380;2023-05-02T00:26:11;94540.25;;;12.57;100.00
11077;BME280;5591;42.626;23.380;2023-05-02T00:28:38;94538.69;;;12.69;100.00
11077;BME280;5591;42.626;23.380;2023-05-02T00:31:05;94540.91;;;12.38;100.00
11077;BME280;5591;42.626;23.380;2023-05-02T00:33:32;94540.63;;;12.61;100.00
11077;BME280;5591;42.626;23.380;2023-05-02T00:35:58;94545.59;;;12.70;100.00
11077;BME280;5591;42.626;23.380;2023-05-02T00:38:25;94543.94;;;12.36;100.00
11077;BME280;5591;42.626;23.380;2023-05-02T00:40:52;94403.13;;;11.64;100.00
11077;BME280;5591;42.626;23.380;2023-05-02T00:43:20;94552.03;;;12.68;100.00
11077;BME280;5591;42.626;23.380;2023-05-02T00:45:47;94560.34;;;12.65;100.00
11077;BME280;5591;42.626;23.380;2023-05-02T00:48:14;94551.16;;;12.61;100.00
11077;BME280;5591;42.626;23.380;2023-05-02T00:50:42;94555.69;;;12.67;100.00
11077;BME280;5591;42.626;23.380;2023-05-02T00:53:09;94560.91;;;12.60;100.00
11077;BME280;5591;42.626;23.380;2023-05-02T00:55:37;94531.97;;;12.33;100.00
11077;BME280;5591;42.626;23.380;2023-05-02T00:58:05;94552.06;;;12.40;100.00
11077;BME280;5591;42.626;23.380;2023-05-02T01:00:44;94538.13;;;12.46;100.00
11077;BME280;5591;42.626;23.380;2023-05-02T01:03:19;94549.75;;;12.58;100.00
11077;BME280;5591;42.626;23.380;2023-05-02T01:05:57;94546.56;;;12.63;100.00
11077;BME280;5591;42.626;23.380;2023-05-02T01:08:32;94542.13;;;12.70;100.00
11077;BME280;5591;42.626;23.380;2023-05-02T01:11:04;94549.59;;;12.66;100.00
11077;BME280;5591;42.626;23.380;2023-05-02T01:13:34;94548.47;;;12.48;100.00
11077;BME280;5591;42.626;23.380;2023-05-02T01:16:05;94549.69;;;12.45;100.00
11077;BME280;5591;42.626;23.380;2023-05-02T01:18:35;94551.56;;;12.31;100.00
11077;BME280;5591;42.626;23.380;2023-05-02T01:21:06;94543.44;;;12.26;100.00
11077;BME280;5591;42.626;23.380;2023-05-02T01:23:40;94544.16;;;12.40;100.00
11077;BME280;5591;42.626;23.380;2023-05-02T01:26:15;94545.50;;;12.30;100.00
11077;BME280;5591;42.626;23.380;2023-05-02T01:28:54;94534.06;;;12.17;100.00
11077;BME280;5591;42.626;23.380;2023-05-02T01:31:23;94542.91;;;12.09;100.00
11077;BME280;5591;42.626;23.380;2023-05-02T01:33:52;94513.16;;;11.88;100.00
11077;BME280;5591;42.626;23.380;2023-05-02T01:36:21;94544.81;;;12.01;100.00
11077;BME280;5591;42.626;23.380;2023-05-02T01:38:51;94543.47;;;11.84;100.00
11077;BME280;5591;42.626;23.380;2023-05-02T01:41:19;94543.47;;;11.84;100.00
11077;BME280;5591;42.626;23.380;2023-05-02T01:43:47;94540.00;;;11.83;100.00
11077;BME280;5591;42.626;23.380;2023-05-02T01:46:17;94543.47;;;11.84;100.00
11077;BME280;5591;42.626;23.380;2023-05-02T01:48:46;94481.19;;;11.49;100.00
11077;BME280;5591;42.626;23.380;2023-05-02T01:51:16;94543.16;;;11.93;100.00
11077;BME280;5591;42.626;23.380;2023-05-02T01:53:45;94551.53;;;12.03;100.00
11077;BME280;5591;42.626;23.380;2023-05-02T01:56:17;94545.66;;;12.01;100.00
11077;BME280;5591;42.626;23.380;2023-05-02T01:58:46;94548.16;;;12.09;100.00
11077;BME280;5591;42.626;23.380;2023-05-02T02:01:16;94542.19;;;12.01;100.00
11077;BME280;5591;42.626;23.380;2023-05-02T02:03:44;94542.34;;;11.93;100.00
11077;BME280;5591;42.626;23.380;2023-05-02T02:06:12;94540.84;;;12.05;100.00
11077;BME280;5591;42.626;23.380;2023-05-02T02:08:39;94538.16;;;11.98;100.00
11077;BME280;5591;42.626;23.380;2023-05-02T02:11:09;94542.47;;;12.06;100.00
11077;BME280;5591;42.626;23.380;2023-05-02T02:13:38;94541.41;;;12.00;100.00
11077;BME280;5591;42.626;23.380;2023-05-02T02:16:11;94541.34;;;11.94;100.00
11077;BME280;5591;42.626;23.380;2023-05-02T02:18:41;94544.03;;;12.00;100.00
11077;BME280;5591;42.626;23.380;2023-05-02T02:21:10;94543.16;;;11.93;100.00
11077;BME280;5591;42.626;23.380;2023-05-02T02:23:41;94533.50;;;11.79;100.00
11077;BME280;5591;42.626;23.380;2023-05-02T02:26:09;94530.03;;;11.58;100.00
11077;BME280;5591;42.626;23.380;2023-05-02T02:28:37;94543.16;;;11.72;100.00
11077;BME280;5591;42.626;23.380;2023-05-02T02:31:04;94538.72;;;11.94;100.00
11077;BME280;5591;42.626;23.380;2023-05-02T02:33:30;94532.50;;;11.80;100.00
11077;BME280;5591;42.626;23.380;2023-05-02T02:36:03;94537.88;;;11.93;100.00
11077;BME280;5591;42.626;23.380;2023-05-02T02:38:37;94541.91;;;11.68;100.00
11077;BME280;5591;42.626;23.380;2023-05-02T02:41:13;94541.69;;;11.91;100.00
11077;BME280;5591;42.626;23.380;2023-05-02T02:43:47;94535.81;;;11.89;100.00
11077;BME280;5591;42.626;23.380;2023-05-02T02:46:27;94542.34;;;11.93;100.00
11077;BME280;5591;42.626;23.380;2023-05-02T02:49:03;94532.00;;;11.91;100.00
11077;BME280;5591;42.626;23.380;2023-05-02T02:51:44;94536.38;;;11.84;100.00
11077;BME280;5591;42.626;23.380;2023-05-02T02:54:15;94539.22;;;11.83;100.00
11077;BME280;5591;42.626;23.380;2023-05-02T02:56:48;94590.88;;;11.90;100.00
11077;BME280;5591;42.626;23.380;2023-05-02T02:59:22;94544.31;;;11.91;100.00
11077;BME280;5591;42.626;23.380;2023-05-02T03:01:55;94526.25;;;11.81;100.00
11077;BME280;5591;42.626;23.380;2023-05-02T03:04:28;94548.34;;;11.87;100.00
11077;BME280;5591;42.626;23.380;2023-05-02T03:06:57;94548.47;;;11.79;100.00
11077;BME280;5591;42.626;23.380;2023-05-02T03:09:25;94552.03;;;11.71;100.00
11077;BME280;5591;42.626;23.380;2023-05-02T03:11:54;94553.16;;;11.83;100.00
11077;BME280;5591;42.626;23.380;2023-05-02T03:14:21;94553.72;;;11.79;100.00
11077;BME280;5591;42.626;23.380;2023-05-02T03:16:49;94557.47;;;11.70;100.00
11077;BME280;5591;42.626;23.380;2023-05-02T03:19:16;94558.88;;;11.87;100.00
11077;BME280;5591;42.626;23.380;2023-05-02T03:21:42;94568.72;;;11.99;100.00
11077;BME280;5591;42.626;23.380;2023-05-02T03:24:11;94578.50;;;11.91;100.00
11077;BME280;5591;42.626;23.380;2023-05-02T03:26:37;94558.88;;;11.87;100.00
11077;BME280;5591;42.626;23.380;2023-05-02T03:29:04;94567.50;;;12.02;100.00
11077;BME280;5591;42.626;23.380;2023-05-02T03:31:31;94575.66;;;12.07;100.00
11077;BME280;5591;42.626;23.380;2023-05-02T03:33:58;94571.50;;;11.98;100.00
11077;BME280;5591;42.626;23.380;2023-05-02T03:36:25;94573.75;;;12.01;100.00
11077;BME280;5591;42.626;23.380;2023-05-02T03:38:52;94558.59;;;12.03;100.00
11077;BME280;5591;42.626;23.380;2023-05-02T03:41:20;94579.34;;;12.12;100.00
11077;BME280;5591;42.626;23.380;2023-05-02T03:43:47;94578.41;;;12.20;100.00
11077;BME280;5591;42.626;23.380;2023-05-02T03:46:14;94570.50;;;12.20;100.00
11077;BME280;5591;42.626;23.380;2023-05-02T03:48:40;94583.28;;;12.23;100.00
11077;BME280;5591;42.626;23.380;2023-05-02T03:51:07;94580.38;;;12.38;100.00
11077;BME280;5591;42.626;23.380;2023-05-02T03:53:35;94576.03;;;12.25;100.00
11077;BME280;5591;42.626;23.380;2023-05-02T03:56:02;94583.72;;;12.53;100.00
11077;BME280;5591;42.626;23.380;2023-05-02T03:58:30;94581.34;;;12.58;100.00
11077;BME280;5591;42.626;23.380;2023-05-02T04:00:56;94579.19;;;12.68;100.00
11077;BME280;5591;42.626;23.380;2023-05-02T04:03:23;94583.66;;;12.95;100.00
11077;BME280;5591;42.626;23.380;2023-05-02T04:05:50;94587.13;;;12.96;100.00
11077;BME280;5591;42.626;23.380;2023-05-02T04:08:17;94579.88;;;13.11;100.00
11077;BME280;5591;42.626;23.380;2023-05-02T04:10:44;94589.25;;;13.13;100.00
11077;BME280;5591;42.626;23.380;2023-05-02T04:13:11;94592.50;;;13.22;100.00
11077;BME280;5591;42.626;23.380;2023-05-02T04:15:39;94590.38;;;13.38;100.00
11077;BME280;5591;42.626;23.380;2023-05-02T04:18:05;94587.94;;;13.37;100.00
11077;BME280;5591;42.626;23.380;2023-05-02T04:20:32;94582.72;;;13.50;100.00
11077;BME280;5591;42.626;23.380;2023-05-02T04:22:59;94587.63;;;13.66;100.00
11077;BME280;5591;42.626;23.380;2023-05-02T04:25:26;94595.06;;;13.49;100.00
11077;BME280;5591;42.626;23.380;2023-05-02T04:27:53;94593.94;;;13.71;100.00
11077;BME280;5591;42.626;23.380;2023-05-02T04:30:20;94581.78;;;13.77;100.00
11077;BME280;5591;42.626;23.380;2023-05-02T04:32:48;94596.41;;;13.79;100.00
11077;BME280;5591;42.626;23.380;2023-05-02T04:35:15;94584.50;;;14.09;100.00
11077;BME280;5591;42.626;23.380;2023-05-02T04:37:42;94589.63;;;14.17;100.00
11077;BME280;5591;42.626;23.380;2023-05-02T04:40:09;94596.31;;;14.26;100.00
11077;BME280;5591;42.626;23.380;2023-05-02T04:42:36;94595.31;;;14.21;100.00
11077;BME280;5591;42.626;23.380;2023-05-02T04:45:04;94600.81;;;14.19;100.00
11077;BME280;5591;42.626;23.380;2023-05-02T04:47:31;94598.78;;;14.41;100.00
11077;BME280;5591;42.626;23.380;2023-05-02T04:49:59;94596.56;;;14.31;100.00
11077;BME280;5591;42.626;23.380;2023-05-02T04:52:26;94595.13;;;14.29;100.00
11077;BME280;5591;42.626;23.380;2023-05-02T04:54:53;94595.13;;;14.35;100.00
11077;BME280;5591;42.626;23.380;2023-05-02T04:57:19;94600.41;;;14.29;100.00
11077;BME280;5591;42.626;23.380;2023-05-02T04:59:46;94595.94;;;14.42;100.00
11077;BME280;5591;42.626;23.380;2023-05-02T05:02:13;94599.41;;;14.43;100.00
11077;BME280;5591;42.626;23.380;2023-05-02T05:04:40;94601.66;;;14.59;100.00
11077;BME280;5591;42.626;23.380;2023-05-02T05:07:08;94604.28;;;14.46;100.00
11077;BME280;5591;42.626;23.380;2023-05-02T05:09:35;94600.44;;;14.55;100.00
11077;BME280;5591;42.626;23.380;2023-05-02T05:12:01;94603.06;;;14.68;100.00
11077;BME280;5591;42.626;23.380;2023-05-02T05:14:28;94592.91;;;14.45;100.00
11077;BME280;5591;42.626;23.380;2023-05-02T05:16:56;94593.50;;;14.47;100.00
11077;BME280;5591;42.626;23.380;2023-05-02T05:19:23;94595.94;;;14.62;100.00
11077;BME280;5591;42.626;23.380;2023-05-02T05:21:50;94588.25;;;14.60;100.00
11077;BME280;5591;42.626;23.380;2023-05-02T05:24:18;94602.03;;;14.88;100.00
11077;BME280;5591;42.626;23.380;2023-05-02T05:26:45;94594.31;;;14.87;100.00
11077;BME280;5591;42.626;23.380;2023-05-02T05:29:12;94599.38;;;14.94;100.00
11077;BME280;5591;42.626;23.380;2023-05-02T05:31:39;94602.19;;;15.25;100.00
11077;BME280;5591;42.626;23.380;2023-05-02T05:34:06;94600.38;;;15.00;100.00
11077;BME280;5591;42.626;23.380;2023-05-02T05:36:32;94609.13;;;15.07;100.00
11077;BME280;5591;42.626;23.380;2023-05-02T05:38:59;94609.69;;;15.22;100.00
11077;BME280;5591;42.626;23.380;2023-05-02T05:41:27;94615.44;;;15.06;100.00
11077;BME280;5591;42.626;23.380;2023-05-02T05:43:54;94612.97;;;15.11;100.00
11077;BME280;5591;42.626;23.380;2023-05-02T05:46:21;94619.66;;;15.26;100.00
11077;BME280;5591;42.626;23.380;2023-05-02T05:48:48;94617.41;;;15.49;100.00
11077;BME280;5591;42.626;23.380;2023-05-02T05:51:15;94612.88;;;15.63;100.00
11077;BME280;5591;42.626;23.380;2023-05-02T05:53:41;94620.06;;;15.49;100.00
11077;BME280;5591;42.626;23.380;2023-05-02T05:56:09;94613.53;;;15.52;100.00
11077;BME280;5591;42.626;23.380;2023-05-02T05:58:37;94625.09;;;15.70;100.00
11077;BME280;5591;42.626;23.380;2023-05-02T06:01:04;94614.44;;;15.83;96.90
11077;BME280;5591;42.626;23.380;2023-05-02T06:03:31;94621.81;;;15.68;97.00
11077;BME280;5591;42.626;23.380;2023-05-02T06:05:57;94619.50;;;15.85;94.57
11077;BME280;5591;42.626;23.380;2023-05-02T06:08:24;94630.28;;;15.90;93.81
11077;BME280;5591;42.626;23.380;2023-05-02T06:10:51;94633.47;;;16.05;93.09
11077;BME280;5591;42.626;23.380;2023-05-02T06:13:18;94633.19;;;16.19;91.32
11077;BME280;5591;42.626;23.380;2023-05-02T06:15:46;94615.91;;;16.10;90.41
11077;BME280;5591;42.626;23.380;2023-05-02T06:18:13;94619.66;;;16.40;87.79
11077;BME280;5591;42.626;23.380;2023-05-02T06:20:40;94616.19;;;16.40;86.22
11077;BME280;5591;42.626;23.380;2023-05-02T06:23:07;94615.06;;;16.54;84.63
11077;BME280;5591;42.626;23.380;2023-05-02T06:25:36;94619.50;;;16.22;86.13
11077;BME280;5591;42.626;23.380;2023-05-02T06:28:03;94611.22;;;16.12;89.15
11077;BME280;5591;42.626;23.380;2023-05-02T06:30:30;94620.69;;;16.33;86.87
11077;BME280;5591;42.626;23.380;2023-05-02T06:32:58;94616.53;;;16.74;83.78
11077;BME280;5591;42.626;23.380;2023-05-02T06:35:25;94608.13;;;16.84;81.61
11077;BME280;5591;42.626;23.380;2023-05-02T06:37:52;94615.22;;;16.59;80.98
11077;BME280;5591;42.626;23.380;2023-05-02T06:40:18;94619.75;;;16.58;80.71
11077;BME280;5591;42.626;23.380;2023-05-02T06:42:45;94610.84;;;16.77;78.16
11077;BME280;5591;42.626;23.380;2023-05-02T06:45:12;94614.72;;;16.75;78.75
11077;BME280;5591;42.626;23.380;2023-05-02T06:47:39;94612.72;;;16.95;76.62
11077;BME280;5591;42.626;23.380;2023-05-02T06:50:08;94609.75;;;16.85;77.72
11077;BME280;5591;42.626;23.380;2023-05-02T06:52:35;94609.13;;;17.07;76.23
11077;BME280;5591;42.626;23.380;2023-05-02T06:55:02;94604.47;;;17.03;75.24
11077;BME280;5591;42.626;23.380;2023-05-02T06:57:29;94604.47;;;17.03;73.75
11077;BME280;5591;42.626;23.380;2023-05-02T06:59:56;94607.13;;;17.03;73.28
11077;BME280;5591;42.626;23.380;2023-05-02T07:02:23;94607.28;;;17.50;71.49
11077;BME280;5591;42.626;23.380;2023-05-02T07:04:50;94605.38;;;17.39;69.27
11077;BME280;5591;42.626;23.380;2023-05-02T07:07:18;94473.09;;;16.64;67.01
11077;BME280;5591;42.626;23.380;2023-05-02T07:09:46;94596.84;;;17.55;66.49
11077;BME280;5591;42.626;23.380;2023-05-02T07:12:13;94611.34;;;17.53;66.46
11077;BME280;5591;42.626;23.380;2023-05-02T07:14:40;94609.53;;;17.53;65.32
11077;BME280;5591;42.626;23.380;2023-05-02T07:17:07;94619.41;;;17.64;65.41
11077;BME280;5591;42.626;23.380;2023-05-02T07:19:34;94615.13;;;17.63;64.13
11077;BME280;5591;42.626;23.380;2023-05-02T07:22:00;94606.34;;;17.80;63.47
11077;BME280;5591;42.626;23.380;2023-05-02T07:24:29;94606.47;;;17.85;63.86
11077;BME280;5591;42.626;23.380;2023-05-02T07:26:55;94598.09;;;17.70;62.45
11077;BME280;5591;42.626;23.380;2023-05-02T07:29:22;94604.09;;;17.77;62.52
11077;BME280;5591;42.626;23.380;2023-05-02T07:31:49;94610.91;;;17.91;62.17
11077;BME280;5591;42.626;23.380;2023-05-02T07:34:16;94600.66;;;18.24;61.90
11077;BME280;5591;42.626;23.380;2023-05-02T07:36:43;94604.34;;;18.23;61.06
11077;BME280;5591;42.626;23.380;2023-05-02T07:39:09;94613.47;;;18.27;60.57
11077;BME280;5591;42.626;23.380;2023-05-02T07:41:38;94612.50;;;18.10;60.77
11077;BME280;5591;42.626;23.380;2023-05-02T07:44:04;94605.50;;;18.57;60.82
11077;BME280;5591;42.626;23.380;2023-05-02T07:46:31;94605.59;;;18.80;60.27
11077;BME280;5591;42.626;23.380;2023-05-02T07:48:58;94610.13;;;19.02;58.45
11077;BME280;5591;42.626;23.380;2023-05-02T07:51:25;94610.81;;;18.86;58.16
11077;BME280;5591;42.626;23.380;2023-05-02T07:53:52;94610.22;;;18.96;58.32
11077;BME280;5591;42.626;23.380;2023-05-02T07:56:22;94608.72;;;19.00;57.39
11077;BME280;5591;42.626;23.380;2023-05-02T07:58:51;94600.84;;;18.93;56.90
11077;BME280;5591;42.626;23.380;2023-05-02T08:01:18;94572.38;;;18.82;57.49
11077;BME280;5591;42.626;23.380;2023-05-02T08:03:45;94599.94;;;18.99;57.88
11077;BME280;5591;42.626;23.380;2023-05-02T08:06:12;94600.56;;;19.36;56.86
11077;BME280;5591;42.626;23.380;2023-05-02T08:08:39;94650.19;;;19.19;56.65
11077;BME280;5591;42.626;23.380;2023-05-02T08:11:06;94602.41;;;19.35;56.13
11077;BME280;5591;42.626;23.380;2023-05-02T08:13:33;94602.84;;;19.09;55.86
11077;BME280;5591;42.626;23.380;2023-05-02T08:16:02;94606.22;;;19.62;55.89
11077;BME280;5591;42.626;23.380;2023-05-02T08:18:29;94591.69;;;19.81;54.49
11077;BME280;5591;42.626;23.380;2023-05-02T08:20:55;94599.41;;;20.06;53.73
11077;BME280;5591;42.626;23.380;2023-05-02T08:23:22;94471.41;;;19.10;54.00
11077;BME280;5591;42.626;23.380;2023-05-02T08:25:49;94590.25;;;20.02;53.29
11077;BME280;5591;42.626;23.380;2023-05-02T08:28:16;94597.78;;;20.44;52.63
11077;BME280;5591;42.626;23.380;2023-05-02T08:30:44;94590.34;;;20.18;53.61
11077;BME280;5591;42.626;23.380;2023-05-02T08:33:12;94596.53;;;20.35;51.77
11077;BME280;5591;42.626;23.380;2023-05-02T08:35:39;94598.72;;;20.38;51.12
11077;BME280;5591;42.626;23.380;2023-05-02T08:38:06;94604.06;;;20.38;51.73
11077;BME280;5591;42.626;23.380;2023-05-02T08:40:35;94592.94;;;20.74;50.84
11077;BME280;5591;42.626;23.380;2023-05-02T08:43:03;94598.75;;;20.99;49.87
11077;BME280;5591;42.626;23.380;2023-05-02T08:45:34;94637.34;;;21.24;48.77
11077;BME280;5591;42.626;23.380;2023-05-02T08:48:05;94600.59;;;20.98;49.22
11077;BME280;5591;42.626;23.380;2023-05-02T08:50:36;94583.94;;;20.91;49.45
11077;BME280;5591;42.626;23.380;2023-05-02T08:53:04;94618.50;;;21.31;48.76
11077;BME280;5591;42.626;23.380;2023-05-02T08:55:33;94616.59;;;21.48;48.42
11077;BME280;5591;42.626;23.380;2023-05-02T08:58:02;94591.72;;;21.80;47.77
11077;BME280;5591;42.626;23.380;2023-05-02T09:00:29;94585.97;;;21.55;47.43
11077;BME280;5591;42.626;23.380;2023-05-02T09:03:05;94575.41;;;21.44;47.56
11077;BME280;5591;42.626;23.380;2023-05-02T09:05:37;94590.59;;;21.60;47.17
11077;BME280;5591;42.626;23.380;2023-05-02T09:08:05;94584.13;;;21.56;46.32
11077;BME280;5591;42.626;23.380;2023-05-02T09:10:33;94577.47;;;21.75;46.53
11077;BME280;5591;42.626;23.380;2023-05-02T09:15:59;94465.72;;;21.50;45.90
11077;BME280;5591;42.626;23.380;2023-05-02T09:18:31;94530.16;;;21.75;46.18
11077;BME280;5591;42.626;23.380;2023-05-02T09:21:00;94579.53;;;21.89;45.34
11077;BME280;5591;42.626;23.380;2023-05-02T09:23:35;94571.69;;;22.26;45.08
11077;BME280;5591;42.626;23.380;2023-05-02T09:26:10;94567.97;;;22.05;44.89
11077;BME280;5591;42.626;23.380;2023-05-02T09:28:38;94567.91;;;21.62;44.90
11077;BME280;5591;42.626;23.380;2023-05-02T09:31:07;94570.38;;;21.64;45.52
11077;BME280;5591;42.626;23.380;2023-05-02T09:33:34;94589.66;;;22.09;44.47
11077;BME280;5591;42.626;23.380;2023-05-02T09:36:03;94568.19;;;22.25;43.94
11077;BME280;5591;42.626;23.380;2023-05-02T09:38:31;94557.22;;;21.62;45.21
11077;BME280;5591;42.626;23.380;2023-05-02T09:40:58;94565.72;;;21.76;44.42
11077;BME280;5591;42.626;23.380;2023-05-02T09:43:27;94556.59;;;22.15;43.72
11077;BME280;5591;42.626;23.380;2023-05-02T09:46:01;94556.81;;;21.92;43.86
11077;BME280;5591;42.626;23.380;2023-05-02T09:48:30;94588.25;;;22.01;43.56
11077;BME280;5591;42.626;23.380;2023-05-02T09:50:57;94550.88;;;22.33;42.93
11077;BME280;5591;42.626;23.380;2023-05-02T09:53:26;94445.25;;;21.61;43.63
11077;BME280;5591;42.626;23.380;2023-05-02T09:56:00;94547.72;;;22.62;42.67
11077;BME280;5591;42.626;23.380;2023-05-02T09:58:27;94550.88;;;22.33;42.11
11077;BME280;5591;42.626;23.380;2023-05-02T10:00:56;94558.81;;;22.44;42.49
11077;BME280;5591;42.626;23.380;2023-05-02T10:03:24;94551.53;;;22.66;41.95
11077;BME280;5591;42.626;23.380;2023-05-02T10:05:51;94547.34;;;22.49;41.22
11077;BME280;5591;42.626;23.380;2023-05-02T10:08:19;94548.53;;;22.94;41.45
11077;BME280;5591;42.626;23.380;2023-05-02T10:10:51;94543.47;;;22.93;40.77
11077;BME280;5591;42.626;23.380;2023-05-02T10:13:20;94539.91;;;23.18;40.82
11077;BME280;5591;42.626;23.380;2023-05-02T10:15:53;94576.78;;;23.43;39.99
11077;BME280;5591;42.626;23.380;2023-05-02T10:18:26;94536.84;;;23.36;39.82
11077;BME280;5591;42.626;23.380;2023-05-02T10:20:56;94531.22;;;23.38;39.18
11077;BME280;5591;42.626;23.380;2023-05-02T10:23:25;94530.09;;;23.80;39.50
11077;BME280;5591;42.626;23.380;2023-05-02T10:25:54;94527.50;;;23.90;38.78
11077;BME280;5591;42.626;23.380;2023-05-02T10:28:22;94514.34;;;23.84;39.08
11077;BME280;5591;42.626;23.380;2023-05-02T10:30:50;94519.69;;;23.84;38.48
11077;BME280;5591;42.626;23.380;2023-05-02T10:33:20;94528.03;;;23.87;38.55
11077;BME280;5591;42.626;23.380;2023-05-02T10:35:46;94556.63;;;24.38;37.97
11077;BME280;5591;42.626;23.380;2023-05-02T10:38:15;94523.34;;;24.34;37.33
11077;BME280;5591;42.626;23.380;2023-05-02T10:40:49;94513.34;;;24.10;38.25
11077;BME280;5591;42.626;23.380;2023-05-02T10:43:23;94518.75;;;24.30;37.84
11077;BME280;5591;42.626;23.380;2023-05-02T10:45:51;94511.59;;;24.65;37.42
11077;BME280;5591;42.626;23.380;2023-05-02T10:48:19;94510.25;;;24.63;36.78
11077;BME280;5591;42.626;23.380;2023-05-02T10:50:48;94510.53;;;25.06;36.63
11077;BME280;5591;42.626;23.380;2023-05-02T10:53:36;94505.88;;;25.72;35.81
11077;BME280;5591;42.626;23.380;2023-05-02T10:56:19;94474.53;;;24.97;36.40
11077;BME280;5591;42.626;23.380;2023-05-02T10:58:49;94500.84;;;25.40;35.13
11077;BME280;5591;42.626;23.380;2023-05-02T11:01:32;94410.31;;;25.21;35.51
11077;BME280;5591;42.626;23.380;2023-05-02T11:04:02;94494.56;;;25.70;35.35
11077;BME280;5591;42.626;23.380;2023-05-02T11:06:30;94421.88;;;25.01;34.91
11077;BME280;5591;42.626;23.380;2023-05-02T11:09:31;94496.97;;;25.76;34.57
11077;BME280;5591;42.626;23.380;2023-05-02T11:11:59;94498.00;;;25.85;35.12
11077;BME280;5591;42.626;23.380;2023-05-02T11:14:44;94503.50;;;25.55;35.55
11077;BME280;5591;42.626;23.380;2023-05-02T11:17:16;94498.44;;;26.17;34.46
11077;BME280;5591;42.626;23.380;2023-05-02T11:22:59;94500.69;;;26.87;34.02
11077;BME280;5591;42.626;23.380;2023-05-02T11:25:47;94498.88;;;27.16;33.45
11077;BME280;5591;42.626;23.380;2023-05-02T11:28:42;94488.47;;;27.85;32.72
11077;BME280;5591;42.626;23.380;2023-05-02T11:34:39;94480.50;;;28.17;32.00
11077;BME280;5591;42.626;23.380;2023-05-02T11:37:13;94483.31;;;28.49;32.24
11077;BME280;5591;42.626;23.380;2023-05-02T11:39:40;94474.28;;;28.90;31.10
11077;BME280;5591;42.626;23.380;2023-05-02T11:42:07;94474.28;;;28.90;30.88
11077;BME280;5591;42.626;23.380;2023-05-02T11:44:36;94460.81;;;29.22;31.61
11077;BME280;5591;42.626;23.380;2023-05-02T11:47:17;94465.50;;;29.62;31.13
11077;BME280;5591;42.626;23.380;2023-05-02T11:49:47;94456.81;;;29.33;30.95
11077;BME280;5591;42.626;23.380;2023-05-02T11:52:14;94464.13;;;29.78;30.76
11077;BME280;5591;42.626;23.380;2023-05-02T11:54:41;94466.63;;;30.28;29.55
11077;BME280;5591;42.626;23.380;2023-05-02T11:57:08;94446.88;;;30.50;29.50
11077;BME280;5591;42.626;23.380;2023-05-02T11:59:48;94459.78;;;31.24;28.80
11077;BME280;5591;42.626;23.380;2023-05-02T12:02:15;94451.72;;;32.10;28.11
11077;BME280;5591;42.626;23.380;2023-05-02T12:04:42;94446.59;;;31.31;28.62
11077;BME280;5591;42.626;23.380;2023-05-02T12:07:10;94437.69;;;32.16;27.67
11077;BME280;5591;42.626;23.380;2023-05-02T12:09:49;94431.22;;;31.95;28.21
11077;BME280;5591;42.626;23.380;2023-05-02T12:12:18;94442.53;;;31.80;27.72
11077;BME280;5591;42.626;23.380;2023-05-02T12:14:45;94433.13;;;31.48;28.11
11077;BME280;5591;42.626;23.380;2023-05-02T12:17:12;94438.56;;;31.56;28.15
11077;BME280;5591;42.626;23.380;2023-05-02T12:19:39;94423.38;;;31.85;27.64
11077;BME280;5591;42.626;23.380;2023-05-02T12:22:06;94430.97;;;32.14;27.80
11077;BME280;5591;42.626;23.380;2023-05-02T12:24:34;94428.50;;;32.68;27.08
11077;BME280;5591;42.626;23.380;2023-05-02T12:27:09;94409.91;;;33.21;26.27
11077;BME280;5591;42.626;23.380;2023-05-02T12:29:40;94417.00;;;32.71;26.23
11077;BME280;5591;42.626;23.380;2023-05-02T12:32:07;94328.59;;;31.67;26.95
11077;BME280;5591;42.626;23.380;2023-05-02T12:34:34;94406.13;;;33.97;26.44
11077;BME280;5591;42.626;23.380;2023-05-02T12:37:01;94400.13;;;33.83;25.19
11077;BME280;5591;42.626;23.380;2023-05-02T12:39:37;94407.84;;;33.73;25.51
11077;BME280;5591;42.626;23.380;2023-05-02T12:42:10;94400.34;;;35.30;24.55
11077;BME280;5591;42.626;23.380;2023-05-02T12:44:37;94385.63;;;34.90;24.34
11077;BME280;5591;42.626;23.380;2023-05-02T12:47:05;94397.13;;;34.75;24.43
11077;BME280;5591;42.626;23.380;2023-05-02T12:49:32;94381.47;;;35.04;24.34
11077;BME280;5591;42.626;23.380;2023-05-02T12:51:59;94394.25;;;33.01;25.76
11077;BME280;5591;42.626;23.380;2023-05-02T12:54:25;94394.47;;;33.51;25.13
11077;BME280;5591;42.626;23.380;2023-05-02T12:56:54;94386.75;;;33.90;25.68
11077;BME280;5591;42.626;23.380;2023-05-02T12:59:27;94388.28;;;32.14;26.37
11077;BME280;5591;42.626;23.380;2023-05-02T13:01:54;94397.63;;;32.56;26.53
11077;BME280;5591;42.626;23.380;2023-05-02T13:04:21;94378.56;;;32.56;26.16
11077;BME280;5591;42.626;23.380;2023-05-02T13:06:58;94381.97;;;33.50;25.83
11077;BME280;5591;42.626;23.380;2023-05-02T13:09:25;94385.41;;;33.38;25.94
11077;BME280;5591;42.626;23.380;2023-05-02T13:11:53;94389.84;;;34.18;24.89
11077;BME280;5591;42.626;23.380;2023-05-02T13:14:21;94395.28;;;34.18;24.83